createdAt,value
2022-08-07T00:00:25.134Z,23.23
2022-08-07T00:02:53.595Z,23.20
2022-08-07T00:05:20.843Z,23.22
2022-08-07T00:07:58.332Z,23.18
2022-08-07T00:10:30.632Z,23.22
2022-08-07T00:13:01.250Z,23.19
2022-08-07T00:15:37.982Z,23.18
2022-08-07T00:18:19.899Z,23.16
2022-08-07T00:20:50.810Z,23.18
2022-08-07T00:23:18.394Z,23.22
2022-08-07T00:25:52.469Z,23.18
2022-08-07T00:28:33.254Z,23.23
2022-08-07T00:31:05.972Z,23.21
2022-08-07T00:33:34.027Z,23.19
2022-08-07T00:36:00.923Z,23.23
2022-08-07T00:38:31.821Z,23.20
2022-08-07T00:41:00.662Z,23.19
2022-08-07T00:43:58.926Z,23.18
2022-08-07T00:46:14.537Z,23.16
2022-08-07T00:48:42.180Z,23.17
2022-08-07T00:51:09.918Z,23.18
2022-08-07T00:53:38.424Z,23.13
2022-08-07T00:56:07.356Z,23.11
2022-08-07T00:58:46.893Z,23.16
2022-08-07T01:01:19.377Z,23.13
2022-08-07T01:03:57.020Z,23.14
2022-08-07T01:06:27.369Z,23.16
2022-08-07T01:08:55.650Z,23.11
2022-08-07T01:12:10.025Z,23.10
2022-08-07T01:14:17.127Z,23.09
2022-08-07T01:16:48.132Z,23.06
2022-08-07T01:19:19.119Z,23.07
2022-08-07T01:21:47.225Z,23.04
2022-08-07T01:24:14.617Z,23.04
2022-08-07T01:26:51.962Z,23.04
2022-08-07T01:29:19.992Z,23.04
2022-08-07T01:31:48.127Z,23.07
2022-08-07T01:34:18.772Z,23.03
2022-08-07T01:36:52.588Z,23.03
2022-08-07T01:39:25.178Z,23.02
2022-08-07T01:42:37.031Z,23.04
2022-08-07T01:44:53.659Z,23.05
2022-08-07T01:48:19.666Z,23.05
2022-08-07T01:50:09.164Z,23.03
2022-08-07T01:52:49.389Z,23.03
2022-08-07T01:55:24.330Z,23.02
2022-08-07T01:58:05.676Z,23.02
2022-08-07T02:00:45.437Z,23.04
2022-08-07T02:03:26.279Z,22.97
2022-08-07T02:05:59.590Z,22.96
2022-08-07T02:08:28.861Z,22.91
2022-08-07T02:10:59.421Z,22.91
2022-08-07T02:13:57.334Z,22.88
2022-08-07T02:16:17.045Z,22.81
2022-08-07T02:18:47.976Z,22.77
2022-08-07T02:21:24.368Z,22.75
2022-08-07T02:23:52.922Z,22.73
2022-08-07T02:26:32.344Z,22.74
2022-08-07T02:29:02.726Z,22.72
2022-08-07T02:31:33.973Z,22.68
2022-08-07T02:34:10.902Z,22.67
2022-08-07T02:36:39.760Z,22.63
2022-08-07T02:39:17.310Z,22.66
2022-08-07T02:41:56.779Z,22.63
2022-08-07T02:44:27.469Z,22.62
2022-08-07T02:47:03.697Z,22.59
2022-08-07T02:49:57.614Z,22.58
2022-08-07T02:52:31.213Z,22.56
2022-08-07T02:55:01.627Z,22.56
2022-08-07T02:57:31.586Z,22.59
2022-08-07T03:00:04.969Z,22.56
2022-08-07T03:02:32.969Z,22.52
2022-08-07T03:05:05.022Z,22.50
2022-08-07T03:07:58.837Z,22.48
2022-08-07T03:10:23.452Z,22.47
2022-08-07T03:12:51.923Z,22.48
2022-08-07T03:15:30.132Z,22.47
2022-08-07T03:18:07.124Z,22.49
2022-08-07T03:20:36.365Z,22.46
2022-08-07T03:23:03.623Z,22.43
2022-08-07T03:25:40.177Z,22.40
2022-08-07T03:28:38.510Z,22.39
2022-08-07T03:31:24.663Z,22.36
2022-08-07T03:34:03.087Z,22.35
2022-08-07T03:36:31.141Z,22.34
2022-08-07T03:39:05.490Z,22.33
2022-08-07T03:41:42.348Z,22.31
2022-08-07T03:44:15.254Z,22.30
2022-08-07T03:47:11.472Z,22.32
2022-08-07T03:49:31.131Z,22.25
2022-08-07T03:52:01.148Z,22.30
2022-08-07T03:54:36.304Z,22.26
2022-08-07T03:58:34.531Z,22.25
2022-08-07T04:00:04.639Z,22.23
2022-08-07T04:02:33.246Z,22.24
2022-08-07T04:05:00.147Z,22.25
2022-08-07T04:07:41.678Z,22.21
2022-08-07T04:10:15.307Z,22.25
2022-08-07T04:12:42.781Z,22.20
2022-08-07T04:15:10.690Z,22.14
2022-08-07T04:18:31.303Z,22.17
2022-08-07T04:20:25.843Z,22.17
2022-08-07T04:23:02.000Z,22.11
2022-08-07T04:25:38.993Z,22.10
2022-08-07T04:28:13.491Z,22.10
2022-08-07T04:30:55.345Z,22.11
2022-08-07T04:33:25.282Z,22.10
2022-08-07T04:35:53.847Z,22.09
2022-08-07T04:38:22.017Z,22.11
2022-08-07T04:40:51.595Z,22.08
2022-08-07T04:44:09.570Z,22.11
2022-08-07T04:46:25.785Z,22.09
2022-08-07T04:48:59.235Z,22.09
2022-08-07T04:51:35.683Z,22.08
2022-08-07T04:54:19.366Z,22.06
2022-08-07T04:58:14.296Z,22.14
2022-08-07T05:00:11.022Z,22.07
2022-08-07T05:02:43.390Z,22.06
2022-08-07T05:05:53.231Z,22.00
2022-08-07T05:08:15.215Z,22.04
2022-08-07T05:11:02.564Z,21.99
2022-08-07T05:14:55.032Z,21.97
2022-08-07T05:16:24.335Z,21.94
2022-08-07T05:18:56.514Z,21.98
2022-08-07T05:22:00.169Z,21.97
2022-08-07T05:24:17.336Z,21.95
2022-08-07T05:26:46.238Z,21.95
2022-08-07T05:29:15.748Z,21.93
2022-08-07T05:31:51.241Z,21.90
2022-08-07T05:34:20.140Z,21.96
2022-08-07T05:36:54.568Z,21.91
2022-08-07T05:40:13.675Z,21.91
2022-08-07T05:42:12.265Z,21.93
2022-08-07T05:44:41.563Z,21.94
2022-08-07T05:47:18.225Z,21.96
2022-08-07T05:49:48.208Z,21.97
2022-08-07T05:52:17.215Z,21.93
2022-08-07T05:54:55.640Z,21.92
2022-08-07T05:57:26.591Z,21.89
2022-08-07T05:59:58.351Z,21.91
2022-08-07T06:02:28.893Z,22.03
2022-08-07T06:04:57.981Z,21.93
2022-08-07T06:08:05.368Z,21.91
2022-08-07T06:10:15.487Z,21.86
2022-08-07T06:12:42.362Z,21.85
2022-08-07T06:15:09.946Z,21.85
2022-08-07T06:17:53.935Z,21.87
2022-08-07T06:20:49.454Z,21.85
2022-08-07T06:23:46.320Z,21.84
2022-08-07T06:25:58.952Z,21.87
2022-08-07T06:28:27.395Z,21.88
2022-08-07T06:30:55.630Z,21.93
2022-08-07T06:33:22.933Z,21.86
2022-08-07T06:36:06.871Z,21.87
2022-08-07T06:38:36.576Z,21.85
2022-08-07T06:41:09.812Z,21.83
2022-08-07T06:43:46.214Z,21.86
2022-08-07T06:46:13.671Z,21.90
2022-08-07T06:48:42.135Z,21.84
2022-08-07T06:51:33.262Z,21.86
2022-08-07T06:55:29.492Z,21.85
2022-08-07T06:56:51.113Z,21.82
2022-08-07T07:00:12.817Z,21.79
2022-08-07T07:02:12.083Z,21.79
2022-08-07T07:04:43.511Z,21.83
2022-08-07T07:08:00.331Z,21.84
2022-08-07T07:10:08.407Z,21.82
2022-08-07T07:12:50.372Z,21.83
2022-08-07T07:15:23.803Z,21.83
2022-08-07T07:18:03.031Z,21.89
2022-08-07T07:20:35.753Z,21.93
2022-08-07T07:24:08.992Z,21.87
2022-08-07T07:26:32.488Z,21.92
2022-08-07T07:28:48.265Z,21.88
2022-08-07T07:31:44.330Z,21.88
2022-08-07T07:34:13.606Z,21.89
2022-08-07T07:36:48.046Z,21.97
2022-08-07T07:39:22.722Z,22.16
2022-08-07T07:42:13.140Z,22.01
2022-08-07T07:44:42.202Z,22.02
2022-08-07T07:47:23.063Z,21.97
2022-08-07T07:50:32.772Z,22.03
2022-08-07T07:52:42.054Z,22.04
2022-08-07T07:55:11.016Z,22.03
2022-08-07T07:57:51.770Z,21.99
2022-08-07T08:00:29.583Z,22.05
2022-08-07T08:03:06.039Z,22.01
2022-08-07T08:05:50.875Z,22.04
2022-08-07T08:08:34.815Z,22.00
2022-08-07T08:11:04.286Z,22.02
2022-08-07T08:13:33.420Z,22.05
2022-08-07T08:16:08.847Z,22.05
2022-08-07T08:18:39.400Z,22.03
2022-08-07T08:21:07.459Z,22.06
2022-08-07T08:23:53.374Z,22.10
2022-08-07T08:26:40.061Z,22.10
2022-08-07T08:29:08.283Z,22.10
2022-08-07T08:32:16.729Z,22.09
2022-08-07T08:34:27.287Z,22.10
2022-08-07T08:37:00.339Z,22.13
2022-08-07T08:39:39.339Z,22.14
2022-08-07T08:42:47.914Z,22.15
2022-08-07T08:45:41.957Z,22.18
2022-08-07T08:48:38.775Z,22.18
2022-08-07T08:52:00.872Z,22.22
2022-08-07T08:54:17.679Z,22.24
2022-08-07T08:56:47.999Z,22.26
2022-08-07T08:59:24.061Z,22.27
2022-08-07T09:02:00.796Z,22.27
2022-08-07T09:04:53.608Z,22.28
2022-08-07T09:07:45.900Z,22.30
2022-08-07T09:10:13.514Z,22.32
2022-08-07T09:12:53.043Z,22.33
2022-08-07T09:16:22.309Z,22.35
2022-08-07T09:18:22.595Z,22.37
2022-08-07T09:21:05.561Z,22.37
2022-08-07T09:24:33.364Z,22.38
2022-08-07T09:27:09.123Z,22.41
2022-08-07T09:30:06.115Z,22.52
2022-08-07T09:32:43.955Z,22.47
2022-08-07T09:36:01.383Z,22.51
2022-08-07T09:38:12.342Z,22.48
2022-08-07T09:40:51.148Z,22.50
2022-08-07T09:44:03.455Z,22.49
2022-08-07T09:47:42.499Z,22.52
2022-08-07T09:50:02.654Z,22.60
2022-08-07T09:52:34.153Z,22.60
2022-08-07T09:55:05.586Z,22.62
2022-08-07T09:57:56.194Z,22.68
2022-08-07T10:00:29.994Z,22.72
2022-08-07T10:03:08.512Z,22.77
2022-08-07T10:06:04.373Z,22.80
2022-08-07T10:11:59.790Z,22.89
2022-08-07T10:14:22.678Z,22.91
2022-08-07T10:17:14.479Z,22.96
2022-08-07T10:19:43.419Z,22.99
2022-08-07T10:22:17.990Z,23.01
2022-08-07T10:24:57.601Z,23.03
2022-08-07T10:27:45.953Z,23.05
2022-08-07T10:30:16.701Z,23.09
2022-08-07T10:33:02.161Z,23.11
2022-08-07T10:35:55.507Z,23.14
2022-08-07T10:38:42.038Z,23.16
2022-08-07T10:41:51.773Z,23.21
2022-08-07T10:44:33.792Z,23.23
2022-08-07T10:47:18.640Z,23.25
2022-08-07T10:50:11.929Z,23.27
2022-08-07T10:52:52.058Z,23.30
2022-08-07T10:55:39.345Z,23.30
2022-08-07T10:58:15.651Z,23.32
2022-08-07T11:00:50.265Z,23.35
2022-08-07T11:03:23.943Z,23.37
2022-08-07T11:06:23.177Z,23.38
2022-08-07T11:09:04.097Z,23.40
2022-08-07T11:11:51.801Z,23.42
2022-08-07T11:14:46.299Z,23.44
2022-08-07T11:17:13.742Z,23.45
2022-08-07T11:19:49.966Z,23.48
2022-08-07T11:22:32.368Z,23.48
2022-08-07T11:25:24.124Z,23.49
2022-08-07T11:28:06.191Z,23.53
2022-08-07T11:30:43.946Z,23.55
2022-08-07T11:33:53.580Z,23.58
2022-08-07T11:36:40.811Z,23.57
2022-08-07T11:39:25.979Z,23.59
2022-08-07T11:42:29.799Z,23.61
2022-08-07T11:44:57.520Z,23.64
2022-08-07T11:47:55.925Z,23.65
2022-08-07T11:50:57.222Z,23.67
2022-08-07T11:54:00.710Z,23.67
2022-08-07T11:56:52.266Z,23.68
2022-08-07T12:00:07.800Z,23.69
2022-08-07T12:02:20.942Z,23.69
2022-08-07T12:05:02.381Z,23.72
2022-08-07T12:07:38.753Z,23.72
2022-08-07T12:10:10.465Z,23.72
2022-08-07T12:12:55.361Z,23.73
2022-08-07T12:15:46.714Z,23.75
2022-08-07T12:18:29.714Z,23.75
2022-08-07T12:21:00.139Z,23.76
2022-08-07T12:24:06.153Z,23.79
2022-08-07T12:26:40.683Z,23.78
2022-08-07T12:29:14.049Z,23.79
2022-08-07T12:31:53.067Z,23.78
2022-08-07T12:34:29.451Z,23.81
2022-08-07T12:36:57.175Z,23.80
2022-08-07T12:39:43.590Z,23.82
2022-08-07T12:42:15.349Z,23.85
2022-08-07T12:44:45.434Z,23.85
2022-08-07T12:47:31.118Z,23.85
2022-08-07T12:50:38.552Z,23.85
2022-08-07T12:53:18.235Z,23.86
2022-08-07T12:56:02.614Z,23.86
2022-08-07T12:58:37.220Z,23.86
2022-08-07T13:01:32.448Z,23.87
2022-08-07T13:04:32.661Z,23.90
2022-08-07T13:07:07.452Z,23.89
2022-08-07T13:10:19.347Z,23.87
2022-08-07T13:12:38.102Z,23.88
2022-08-07T13:15:29.801Z,23.87
2022-08-07T13:18:26.767Z,23.90
2022-08-07T13:21:14.073Z,23.92
2022-08-07T13:24:11.458Z,23.94
2022-08-07T13:26:49.360Z,23.98
2022-08-07T13:29:34.786Z,23.99
2022-08-07T13:32:31.245Z,24.01
2022-08-07T13:35:08.937Z,23.98
2022-08-07T13:37:59.018Z,24.00
2022-08-07T13:40:35.611Z,24.00
2022-08-07T13:43:11.714Z,23.99
2022-08-07T13:46:11.756Z,23.99
2022-08-07T13:48:33.847Z,24.03
2022-08-07T13:51:20.423Z,24.04
2022-08-07T13:54:00.489Z,24.05
2022-08-07T13:56:36.016Z,24.02
2022-08-07T13:59:15.894Z,24.04
2022-08-07T14:01:59.242Z,24.06
2022-08-07T14:04:35.610Z,24.09
2022-08-07T14:07:09.645Z,24.08
2022-08-07T14:10:00.973Z,24.10
2022-08-07T14:12:54.162Z,24.10
2022-08-07T14:15:35.918Z,24.13
2022-08-07T14:18:23.942Z,24.13
2022-08-07T14:20:54.669Z,24.16
2022-08-07T14:23:58.639Z,24.16
2022-08-07T14:26:29.807Z,24.18
2022-08-07T14:29:04.303Z,24.18
2022-08-07T14:31:43.073Z,24.18
2022-08-07T14:34:23.598Z,24.17
2022-08-07T14:36:55.998Z,24.19
2022-08-07T14:40:16.128Z,24.19
2022-08-07T14:42:20.664Z,24.16
2022-08-07T14:44:53.017Z,24.19
2022-08-07T14:47:20.801Z,24.22
2022-08-07T14:52:36.726Z,24.25
2022-08-07T14:55:05.161Z,24.26
2022-08-07T14:57:58.126Z,24.26
2022-08-07T15:00:30.310Z,24.25
2022-08-07T15:02:59.148Z,24.25
2022-08-07T15:05:26.940Z,24.26
2022-08-07T15:07:58.497Z,24.27
2022-08-07T15:13:25.456Z,24.30
2022-08-07T15:16:03.751Z,24.29
2022-08-07T15:18:43.162Z,24.27
2022-08-07T15:21:44.139Z,24.30
2022-08-07T15:26:57.551Z,24.31
2022-08-07T15:30:10.912Z,24.32
2022-08-07T15:35:15.235Z,24.34
2022-08-07T15:38:04.420Z,24.34
2022-08-07T15:40:36.214Z,24.34
2022-08-07T15:43:06.042Z,24.35
2022-08-07T15:45:58.224Z,24.37
2022-08-07T15:48:32.281Z,24.38
2022-08-07T15:51:09.240Z,24.40
2022-08-07T15:53:53.099Z,24.39
2022-08-07T15:56:24.283Z,24.40
2022-08-07T15:58:58.076Z,24.41
2022-08-07T16:01:38.536Z,24.41
2022-08-07T16:04:14.258Z,24.41
2022-08-07T16:06:50.230Z,24.43
2022-08-07T16:09:22.439Z,24.43
2022-08-07T16:12:12.229Z,24.43
2022-08-07T16:14:42.115Z,24.44
2022-08-07T16:17:16.306Z,24.45
2022-08-07T16:20:01.754Z,24.47
2022-08-07T16:22:33.817Z,24.48
2022-08-07T16:25:48.830Z,24.48
2022-08-07T16:30:05.550Z,24.48
2022-08-07T16:31:50.841Z,24.47
2022-08-07T16:34:26.487Z,24.46
2022-08-07T16:37:02.293Z,24.45
2022-08-07T16:39:49.676Z,24.45
2022-08-07T16:42:36.520Z,24.44
2022-08-07T16:48:13.438Z,24.48
2022-08-07T16:50:48.442Z,24.47
2022-08-07T16:54:02.715Z,24.48
2022-08-07T16:56:14.134Z,24.48
2022-08-07T16:59:11.095Z,24.51
2022-08-07T17:01:41.435Z,24.50
2022-08-07T17:04:24.545Z,24.48
2022-08-07T17:07:02.734Z,24.47
2022-08-07T17:10:06.346Z,24.45
2022-08-07T17:12:47.474Z,24.45
2022-08-07T17:15:15.580Z,24.45
2022-08-07T17:17:46.299Z,24.47
2022-08-07T17:20:20.820Z,24.47
2022-08-07T17:23:08.789Z,24.45
2022-08-07T17:25:51.760Z,24.45
2022-08-07T17:28:24.591Z,24.42
2022-08-07T17:31:17.341Z,24.43
2022-08-07T17:34:32.874Z,24.44
2022-08-07T17:36:58.022Z,24.44
2022-08-07T17:39:57.647Z,24.44
2022-08-07T17:42:58.170Z,24.43
2022-08-07T17:45:35.054Z,24.43
2022-08-07T17:48:04.822Z,24.40
2022-08-07T17:50:50.235Z,24.40
2022-08-07T17:54:00.108Z,24.40
2022-08-07T17:56:25.957Z,24.41
2022-08-07T17:58:56.919Z,24.41
2022-08-07T18:01:36.715Z,24.40
2022-08-07T18:04:21.992Z,24.40
2022-08-07T18:07:20.262Z,24.40
2022-08-07T18:10:07.121Z,24.38
2022-08-07T18:13:09.834Z,24.36
2022-08-07T18:15:54.812Z,24.33
2022-08-07T18:18:46.422Z,24.34
2022-08-07T18:21:53.379Z,24.33
2022-08-07T18:24:33.117Z,24.32
2022-08-07T18:27:06.650Z,24.30
2022-08-07T18:30:07.392Z,24.30
2022-08-07T18:32:23.002Z,24.29
2022-08-07T18:35:08.431Z,24.28
2022-08-07T18:38:58.567Z,24.26
2022-08-07T18:40:42.676Z,24.28
2022-08-07T18:43:42.532Z,24.25
2022-08-07T18:46:32.733Z,24.26
2022-08-07T18:50:31.385Z,24.25
2022-08-07T18:52:51.650Z,24.25
2022-08-07T18:55:40.778Z,24.24
2022-08-07T18:58:10.739Z,24.23
2022-08-07T19:00:53.771Z,24.21
2022-08-07T19:03:38.087Z,24.20
2022-08-07T19:06:09.403Z,24.20
2022-08-07T19:08:46.636Z,24.20
2022-08-07T19:11:36.456Z,24.21
2022-08-07T19:14:11.648Z,24.22
2022-08-07T19:17:06.466Z,24.20
2022-08-07T19:19:53.785Z,24.21
2022-08-07T19:22:34.242Z,24.21
2022-08-07T19:25:05.636Z,24.21
2022-08-07T19:29:03.546Z,24.19
2022-08-07T19:31:04.153Z,24.20
2022-08-07T19:33:16.375Z,24.20
2022-08-07T19:35:52.259Z,24.20
2022-08-07T19:38:20.941Z,24.19
2022-08-07T19:40:51.469Z,24.20
2022-08-07T19:43:43.980Z,24.18
2022-08-07T19:46:12.202Z,24.19
2022-08-07T19:48:53.915Z,24.18
2022-08-07T19:51:53.102Z,24.19
2022-08-07T19:54:30.030Z,24.19
2022-08-07T19:58:02.036Z,24.18
2022-08-07T19:59:53.777Z,24.18
2022-08-07T20:02:29.447Z,24.18
2022-08-07T20:04:57.197Z,24.16
2022-08-07T20:07:47.674Z,24.16
2022-08-07T20:10:35.474Z,24.14
2022-08-07T20:13:22.475Z,24.14
2022-08-07T20:15:51.295Z,24.13
2022-08-07T20:18:21.789Z,24.14
2022-08-07T20:21:02.918Z,24.14
2022-08-07T20:23:43.385Z,24.14
2022-08-07T20:26:29.563Z,24.14
2022-08-07T20:29:01.825Z,24.13
2022-08-07T20:31:43.194Z,24.13
2022-08-07T20:34:14.759Z,24.13
2022-08-07T20:36:51.704Z,24.13
2022-08-07T20:40:03.004Z,24.13
2022-08-07T20:42:14.402Z,24.12
2022-08-07T20:44:45.391Z,24.13
2022-08-07T20:47:18.472Z,24.13
2022-08-07T20:49:59.716Z,24.12
2022-08-07T20:52:50.794Z,24.11
2022-08-07T20:55:20.557Z,24.11
2022-08-07T20:58:02.598Z,24.12
2022-08-07T21:00:47.245Z,24.11
2022-08-07T21:03:17.456Z,24.11
2022-08-07T21:05:54.584Z,24.11
2022-08-07T21:08:37.100Z,24.10
2022-08-07T21:11:10.831Z,24.11
2022-08-07T21:13:57.400Z,24.09
2022-08-07T21:16:30.612Z,24.10
2022-08-07T21:18:58.441Z,24.11
2022-08-07T21:21:49.171Z,24.09
2022-08-07T21:24:47.939Z,24.10
2022-08-07T21:27:24.635Z,24.10
2022-08-07T21:29:58.156Z,24.10
2022-08-07T21:32:49.411Z,24.09
2022-08-07T21:36:03.900Z,24.09
2022-08-07T21:38:30.216Z,24.08
2022-08-07T21:41:11.068Z,24.10
2022-08-07T21:43:56.056Z,24.08
2022-08-07T21:46:33.031Z,24.08
2022-08-07T21:49:15.036Z,24.09
2022-08-07T21:51:50.959Z,24.09
2022-08-07T21:54:27.381Z,24.08
2022-08-07T21:57:03.526Z,24.08
2022-08-07T22:00:09.373Z,24.10
2022-08-07T22:03:07.875Z,24.08
2022-08-07T22:05:50.180Z,24.07
2022-08-07T22:08:21.062Z,24.08
2022-08-07T22:10:51.660Z,24.07
2022-08-07T22:13:24.391Z,24.08
2022-08-07T22:16:43.461Z,24.09
2022-08-07T22:19:23.802Z,24.07
2022-08-07T22:22:17.683Z,24.07
2022-08-07T22:24:52.671Z,24.06
2022-08-07T22:27:33.890Z,24.07
2022-08-07T22:30:13.134Z,24.05
2022-08-07T22:32:44.813Z,24.06
2022-08-07T22:35:12.606Z,24.05
2022-08-07T22:38:03.694Z,24.05
2022-08-07T22:40:50.689Z,24.06
2022-08-07T22:43:36.022Z,24.06
2022-08-07T22:46:21.938Z,24.06
2022-08-07T22:49:09.657Z,24.05
2022-08-07T22:51:42.145Z,24.05
2022-08-07T22:54:27.357Z,24.06
2022-08-07T22:56:56.787Z,24.04
2022-08-07T22:59:26.326Z,24.03
2022-08-07T23:01:52.942Z,24.02
2022-08-07T23:04:29.908Z,24.04
2022-08-07T23:07:03.380Z,24.01
2022-08-07T23:10:37.820Z,24.04
2022-08-07T23:12:50.596Z,24.03
2022-08-07T23:16:07.350Z,24.03
2022-08-07T23:18:18.546Z,24.03
2022-08-07T23:20:53.485Z,24.03
2022-08-07T23:24:05.709Z,24.01
2022-08-07T23:26:13.753Z,24.01
2022-08-07T23:29:02.945Z,23.98
2022-08-07T23:34:21.200Z,23.99
2022-08-07T23:34:52.214Z,24.00
2022-08-07T23:37:37.788Z,23.99
2022-08-07T23:40:30.775Z,23.99
2022-08-07T23:43:16.795Z,23.98
2022-08-07T23:46:03.563Z,23.99
2022-08-07T23:48:56.175Z,23.97
2022-08-07T23:53:17.462Z,23.96
2022-08-07T23:54:44.212Z,23.96
2022-08-07T23:57:18.540Z,23.97
